sensor_id;sensor_type;location;lat;lon;timestamp;pressure;altitude;pressure_sealevel;temperature;humidity
30614;BME280;17381;51.690;5.270;2022-08-14T06:48:48;100967.66;;;22.29;50.17
30614;BME280;17381;51.690;5.270;2022-08-14T06:52:02;100954.44;;;22.39;50.50
30614;BME280;17381;51.690;5.270;2022-08-14T06:54:59;100953.03;;;22.46;50.10
30614;BME280;17381;51.690;5.270;2022-08-14T08:33:08;100915.19;;;25.60;47.25
30614;BME280;17381;51.690;5.270;2022-08-14T08:36:18;100905.75;;;25.75;47.00
30614;BME280;17381;51.690;5.270;2022-08-14T08:39:19;100906.38;;;25.88;46.38
30614;BME280;17381;51.690;5.270;2022-08-14T08:42:32;100908.72;;;26.03;45.38
30614;BME280;17381;51.690;5.270;2022-08-14T08:45:27;100888.03;;;26.13;44.99
30614;BME280;17381;51.690;5.270;2022-08-14T08:48:59;100894.97;;;26.25;45.10
30614;BME280;17381;51.690;5.270;2022-08-14T08:54:59;100904.53;;;26.59;45.01
30614;BME280;17381;51.690;5.270;2022-08-14T08:57:38;100903.41;;;26.81;44.73
30614;BME280;17381;51.690;5.270;2022-08-14T09:00:23;100890.44;;;26.94;44.59
30614;BME280;17381;51.690;5.270;2022-08-14T09:10:25;100892.53;;;27.57;43.21
30614;BME280;17381;51.690;5.270;2022-08-14T09:13:19;100909.38;;;27.78;42.84
30614;BME280;17381;51.690;5.270;2022-08-14T09:15:55;100891.69;;;27.94;42.46
30614;BME280;17381;51.690;5.270;2022-08-14T09:18:34;100886.31;;;28.12;42.04
30614;BME280;17381;51.690;5.270;2022-08-14T09:21:35;100847.31;;;28.14;41.27
30614;BME280;17381;51.690;5.270;2022-08-14T09:24:40;100885.34;;;28.48;40.81
30614;BME280;17381;51.690;5.270;2022-08-14T09:27:25;100889.22;;;28.64;40.48
30614;BME280;17381;51.690;5.270;2022-08-14T09:30:25;100853.03;;;28.65;39.83
30614;BME280;17381;51.690;5.270;2022-08-14T09:42:46;100863.53;;;29.38;39.63
30614;BME280;17381;51.690;5.270;2022-08-14T09:45:34;100859.69;;;29.57;39.07
30614;BME280;17381;51.690;5.270;2022-08-14T09:48:33;100848.59;;;29.68;38.78
30614;BME280;17381;51.690;5.270;2022-08-14T09:51:26;100849.47;;;29.77;38.91
30614;BME280;17381;51.690;5.270;2022-08-14T09:54:08;100843.94;;;29.95;38.66
30614;BME280;17381;51.690;5.270;2022-08-14T09:57:03;100841.94;;;30.13;37.08
30614;BME280;17381;51.690;5.270;2022-08-14T09:59:51;100836.19;;;30.33;37.93
30614;BME280;17381;51.690;5.270;2022-08-14T10:03:01;100840.97;;;30.47;37.57
30614;BME280;17381;51.690;5.270;2022-08-14T10:05:49;100828.91;;;30.66;36.24
30614;BME280;17381;51.690;5.270;2022-08-14T10:09:06;100826.22;;;30.82;36.60
30614;BME280;17381;51.690;5.270;2022-08-14T10:12:01;100820.78;;;30.91;36.42
30614;BME280;17381;51.690;5.270;2022-08-14T10:14:57;100820.53;;;31.00;36.87
30614;BME280;17381;51.690;5.270;2022-08-14T10:17:45;100812.41;;;31.08;36.48
30614;BME280;17381;51.690;5.270;2022-08-14T10:20:30;100806.41;;;31.21;36.42
30614;BME280;17381;51.690;5.270;2022-08-14T10:23:37;100805.19;;;31.32;35.96
30614;BME280;17381;51.690;5.270;2022-08-14T10:26:33;100801.09;;;31.44;36.52
30614;BME280;17381;51.690;5.270;2022-08-14T10:29:38;100808.38;;;31.75;35.77
30614;BME280;17381;51.690;5.270;2022-08-14T10:33:08;100803.66;;;32.00;35.27
30614;BME280;17381;51.690;5.270;2022-08-14T10:35:52;100804.63;;;32.07;35.52
30614;BME280;17381;51.690;5.270;2022-08-14T10:38:42;100797.75;;;32.20;35.65
30614;BME280;17381;51.690;5.270;2022-08-14T10:41:39;100793.53;;;32.32;35.37
30614;BME280;17381;51.690;5.270;2022-08-14T10:44:37;100779.88;;;32.40;35.46
30614;BME280;17381;51.690;5.270;2022-08-14T10:47:18;100776.59;;;32.45;34.46
30614;BME280;17381;51.690;5.270;2022-08-14T10:49:59;100767.22;;;32.47;35.12
30614;BME280;17381;51.690;5.270;2022-08-14T10:56:41;100767.47;;;32.61;33.60
30614;BME280;17381;51.690;5.270;2022-08-14T10:59:24;100765.28;;;32.71;33.36
30614;BME280;17381;51.690;5.270;2022-08-14T11:02:02;100770.47;;;32.80;33.55
30614;BME280;17381;51.690;5.270;2022-08-14T11:05:16;100769.75;;;32.87;32.93
30614;BME280;17381;51.690;5.270;2022-08-14T11:08:00;100758.56;;;32.82;32.89
30614;BME280;17381;51.690;5.270;2022-08-14T11:10:52;100713.28;;;32.66;32.84
30614;BME280;17381;51.690;5.270;2022-08-14T11:13:33;100757.31;;;32.99;32.60
30614;BME280;17381;51.690;5.270;2022-08-14T11:20:13;100765.69;;;32.97;31.63
30614;BME280;17381;51.690;5.270;2022-08-14T11:22:58;100756.69;;;32.97;31.74
30614;BME280;17381;51.690;5.270;2022-08-14T11:26:04;100761.75;;;33.00;30.60
30614;BME280;17381;51.690;5.270;2022-08-14T11:29:01;100758.19;;;33.14;31.86
30614;BME280;17381;51.690;5.270;2022-08-14T11:31:41;100759.00;;;33.30;31.44
30614;BME280;17381;51.690;5.270;2022-08-14T11:34:26;100714.94;;;33.26;30.90
30614;BME280;17381;51.690;5.270;2022-08-14T11:37:12;100741.13;;;33.57;31.32
30614;BME280;17381;51.690;5.270;2022-08-14T11:40:01;100754.97;;;33.77;31.38
30614;BME280;17381;51.690;5.270;2022-08-14T11:42:45;100757.22;;;33.95;30.97
30614;BME280;17381;51.690;5.270;2022-08-14T11:45:32;100744.59;;;34.08;30.60
30614;BME280;17381;51.690;5.270;2022-08-14T11:51:11;100729.13;;;34.44;29.77
30614;BME280;17381;51.690;5.270;2022-08-14T11:54:12;100718.75;;;34.61;30.55
30614;BME280;17381;51.690;5.270;2022-08-14T11:56:47;100712.53;;;34.73;28.13
30614;BME280;17381;51.690;5.270;2022-08-14T11:59:30;100711.81;;;34.93;28.80
30614;BME280;17381;51.690;5.270;2022-08-14T12:02:12;100710.09;;;34.85;26.74
30614;BME280;17381;51.690;5.270;2022-08-14T12:04:56;100695.38;;;34.86;27.13
30614;BME280;17381;51.690;5.270;2022-08-14T12:07:49;100696.25;;;34.93;26.73
30614;BME280;17381;51.690;5.270;2022-08-14T12:10:39;100686.06;;;35.15;28.15
30614;BME280;17381;51.690;5.270;2022-08-14T12:13:21;100690.34;;;35.38;25.32
30614;BME280;17381;51.690;5.270;2022-08-14T12:15:59;100680.19;;;35.25;26.82
30614;BME280;17381;51.690;5.270;2022-08-14T12:19:01;100682.72;;;35.20;26.73
30614;BME280;17381;51.690;5.270;2022-08-14T12:21:54;100649.25;;;35.18;27.36
30614;BME280;17381;51.690;5.270;2022-08-14T12:24:56;100674.59;;;35.53;26.75
30614;BME280;17381;51.690;5.270;2022-08-14T12:27:53;100622.00;;;35.45;27.53
30614;BME280;17381;51.690;5.270;2022-08-14T12:33:20;100671.25;;;36.24;27.39
30614;BME280;17381;51.690;5.270;2022-08-14T12:36:06;100667.03;;;36.42;25.87
30614;BME280;17381;51.690;5.270;2022-08-14T12:38:50;100672.88;;;36.65;26.74
30614;BME280;17381;51.690;5.270;2022-08-14T12:41:47;100661.84;;;36.92;27.12
30614;BME280;17381;51.690;5.270;2022-08-14T12:45:04;100666.59;;;37.17;25.52
30614;BME280;17381;51.690;5.270;2022-08-14T12:48:07;100643.63;;;36.66;25.16
30614;BME280;17381;51.690;5.270;2022-08-14T12:51:00;100628.31;;;35.98;25.86
30614;BME280;17381;51.690;5.270;2022-08-14T12:54:10;100649.38;;;35.98;26.26
30614;BME280;17381;51.690;5.270;2022-08-14T12:56:49;100640.94;;;36.19;26.68
30614;BME280;17381;51.690;5.270;2022-08-14T12:59:46;100633.53;;;36.40;26.05
30614;BME280;17381;51.690;5.270;2022-08-14T13:02:27;100634.16;;;36.42;24.62
30614;BME280;17381;51.690;5.270;2022-08-14T13:05:02;100630.66;;;36.01;25.84
30614;BME280;17381;51.690;5.270;2022-08-14T13:07:40;100632.75;;;35.59;26.05
30614;BME280;17381;51.690;5.270;2022-08-14T13:10:22;100623.28;;;35.82;27.70
30614;BME280;17381;51.690;5.270;2022-08-14T13:13:02;100618.19;;;36.25;27.02
30614;BME280;17381;51.690;5.270;2022-08-14T13:15:49;100620.91;;;36.45;26.60
30614;BME280;17381;51.690;5.270;2022-08-14T13:18:53;100625.53;;;36.32;25.11
30614;BME280;17381;51.690;5.270;2022-08-14T13:21:31;100629.59;;;36.22;25.90
30614;BME280;17381;51.690;5.270;2022-08-14T13:24:06;100626.13;;;36.47;26.26
30614;BME280;17381;51.690;5.270;2022-08-14T13:26:56;100624.75;;;36.83;25.83
30614;BME280;17381;51.690;5.270;2022-08-14T13:29:51;100610.75;;;37.04;24.52
30614;BME280;17381;51.690;5.270;2022-08-14T13:32:46;100609.09;;;37.03;24.72
30614;BME280;17381;51.690;5.270;2022-08-14T13:35:33;100614.44;;;37.23;25.71
30614;BME280;17381;51.690;5.270;2022-08-14T13:38:26;100607.16;;;37.10;24.70
30614;BME280;17381;51.690;5.270;2022-08-14T13:41:07;100614.25;;;36.73;25.39
30614;BME280;17381;51.690;5.270;2022-08-14T13:43:55;100609.56;;;36.22;25.33
30614;BME280;17381;51.690;5.270;2022-08-14T13:46:32;100601.59;;;35.94;26.10
30614;BME280;17381;51.690;5.270;2022-08-14T13:49:27;100598.88;;;35.67;26.59
30614;BME280;17381;51.690;5.270;2022-08-14T13:52:24;100597.78;;;35.88;26.58
30614;BME280;17381;51.690;5.270;2022-08-14T13:55:29;100588.78;;;35.74;26.90
30614;BME280;17381;51.690;5.270;2022-08-14T13:58:28;100591.94;;;35.58;26.44
30614;BME280;17381;51.690;5.270;2022-08-14T14:01:59;100557.00;;;35.60;26.77
30614;BME280;17381;51.690;5.270;2022-08-14T14:04:41;100574.00;;;36.15;27.05
30614;BME280;17381;51.690;5.270;2022-08-14T14:07:22;100551.56;;;36.45;26.41
30614;BME280;17381;51.690;5.270;2022-08-14T14:10:16;100573.50;;;36.90;24.21
30614;BME280;17381;51.690;5.270;2022-08-14T14:15:49;100561.94;;;37.20;24.73
30614;BME280;17381;51.690;5.270;2022-08-14T14:18:31;100559.38;;;37.50;25.32
30614;BME280;17381;51.690;5.270;2022-08-14T14:21:40;100561.47;;;37.80;23.63
30614;BME280;17381;51.690;5.270;2022-08-14T14:28:40;100531.06;;;37.56;24.13
30614;BME280;17381;51.690;5.270;2022-08-14T14:32:12;100557.13;;;37.40;24.59
30614;BME280;17381;51.690;5.270;2022-08-14T14:35:09;100563.63;;;37.21;24.27
30614;BME280;17381;51.690;5.270;2022-08-14T14:38:00;100557.72;;;37.17;25.29
30614;BME280;17381;51.690;5.270;2022-08-14T14:41:06;100558.25;;;37.32;25.68
30614;BME280;17381;51.690;5.270;2022-08-14T14:44:02;100551.66;;;37.40;25.11
30614;BME280;17381;51.690;5.270;2022-08-14T14:47:29;100548.91;;;37.40;24.46
30614;BME280;17381;51.690;5.270;2022-08-14T14:50:25;100543.38;;;37.22;24.54
30614;BME280;17381;51.690;5.270;2022-08-14T14:53:24;100540.38;;;36.92;25.40
30614;BME280;17381;51.690;5.270;2022-08-14T14:56:19;100537.81;;;36.65;25.92
30614;BME280;17381;51.690;5.270;2022-08-14T14:59:18;100543.56;;;36.43;26.33
30614;BME280;17381;51.690;5.270;2022-08-14T15:02:17;100517.75;;;36.19;25.23
30614;BME280;17381;51.690;5.270;2022-08-14T15:05:23;100543.16;;;36.40;26.37
30614;BME280;17381;51.690;5.270;2022-08-14T15:08:22;100541.09;;;36.22;25.70
30614;BME280;17381;51.690;5.270;2022-08-14T15:11:14;100532.94;;;36.02;26.08
30614;BME280;17381;51.690;5.270;2022-08-14T15:14:10;100523.94;;;35.81;26.30
30614;BME280;17381;51.690;5.270;2022-08-14T15:17:09;100517.63;;;35.74;27.69
30614;BME280;17381;51.690;5.270;2022-08-14T15:20:05;100521.84;;;35.70;27.12
30614;BME280;17381;51.690;5.270;2022-08-14T15:23:03;100518.69;;;35.60;26.80
30614;BME280;17381;51.690;5.270;2022-08-14T15:25:56;100518.28;;;35.43;27.42
30614;BME280;17381;51.690;5.270;2022-08-14T15:28:55;100507.13;;;35.25;25.49
30614;BME280;17381;51.690;5.270;2022-08-14T15:31:47;100506.69;;;35.21;26.94
30614;BME280;17381;51.690;5.270;2022-08-14T15:34:46;100515.31;;;35.31;27.14
30614;BME280;17381;51.690;5.270;2022-08-14T15:37:54;100511.75;;;35.37;28.37
30614;BME280;17381;51.690;5.270;2022-08-14T15:40:59;100502.94;;;35.35;27.44
30614;BME280;17381;51.690;5.270;2022-08-14T15:43:56;100507.56;;;35.35;28.00
30614;BME280;17381;51.690;5.270;2022-08-14T15:46:52;100498.72;;;35.26;26.02
30614;BME280;17381;51.690;5.270;2022-08-14T15:49:47;100497.63;;;35.07;26.84
30614;BME280;17381;51.690;5.270;2022-08-14T15:52:47;100491.94;;;34.95;27.19
30614;BME280;17381;51.690;5.270;2022-08-14T15:55:45;100492.56;;;34.84;27.87
30614;BME280;17381;51.690;5.270;2022-08-14T15:58:39;100498.19;;;34.69;26.83
30614;BME280;17381;51.690;5.270;2022-08-14T16:01:35;100485.09;;;34.51;27.37
30614;BME280;17381;51.690;5.270;2022-08-14T16:04:28;100490.50;;;34.38;28.13
30614;BME280;17381;51.690;5.270;2022-08-14T16:07:16;100497.88;;;34.31;28.05
30614;BME280;17381;51.690;5.270;2022-08-14T16:09:56;100491.53;;;34.24;27.83
30614;BME280;17381;51.690;5.270;2022-08-14T16:15:39;100493.75;;;34.07;28.25
30614;BME280;17381;51.690;5.270;2022-08-14T16:18:41;100479.16;;;33.93;28.42
30614;BME280;17381;51.690;5.270;2022-08-14T16:21:39;100481.66;;;33.88;28.58
30614;BME280;17381;51.690;5.270;2022-08-14T16:24:48;100483.91;;;33.78;28.62
30614;BME280;17381;51.690;5.270;2022-08-14T16:27:43;100474.81;;;33.64;29.13
30614;BME280;17381;51.690;5.270;2022-08-14T16:31:00;100482.94;;;33.57;29.32
30614;BME280;17381;51.690;5.270;2022-08-14T16:33:56;100476.13;;;33.47;28.73
30614;BME280;17381;51.690;5.270;2022-08-14T16:44:08;100462.09;;;33.21;29.09
30614;BME280;17381;51.690;5.270;2022-08-14T16:46:59;100464.16;;;33.19;29.46
30614;BME280;17381;51.690;5.270;2022-08-14T16:50:07;100458.09;;;33.17;29.15
30614;BME280;17381;51.690;5.270;2022-08-14T16:58:01;100447.06;;;33.04;29.22
30614;BME280;17381;51.690;5.270;2022-08-14T17:04:56;100444.00;;;32.92;30.17
30614;BME280;17381;51.690;5.270;2022-08-14T17:15:28;100432.81;;;32.44;29.87
30614;BME280;17381;51.690;5.270;2022-08-14T17:19:00;100400.31;;;32.21;29.66
30614;BME280;17381;51.690;5.270;2022-08-14T17:34:24;100430.63;;;32.33;30.88
30614;BME280;17381;51.690;5.270;2022-08-14T17:45:06;100424.75;;;32.14;30.74
30614;BME280;17381;51.690;5.270;2022-08-14T17:47:58;100420.28;;;32.07;30.89
30614;BME280;17381;51.690;5.270;2022-08-14T17:50:55;100430.75;;;32.10;30.33
30614;BME280;17381;51.690;5.270;2022-08-14T17:53:56;100423.16;;;32.05;30.53
30614;BME280;17381;51.690;5.270;2022-08-14T17:56:42;100427.09;;;32.03;31.03
30614;BME280;17381;51.690;5.270;2022-08-14T17:59:51;100402.16;;;31.84;30.94
30614;BME280;17381;51.690;5.270;2022-08-14T18:03:02;100419.06;;;31.94;31.01
30614;BME280;17381;51.690;5.270;2022-08-14T18:05:54;100429.25;;;31.92;31.08
30614;BME280;17381;51.690;5.270;2022-08-14T18:09:03;100431.25;;;31.84;31.43
30614;BME280;17381;51.690;5.270;2022-08-14T18:12:01;100424.69;;;31.78;31.49
30614;BME280;17381;51.690;5.270;2022-08-14T18:14:56;100426.91;;;31.75;31.95
30614;BME280;17381;51.690;5.270;2022-08-14T18:18:04;100421.47;;;31.60;32.06
30614;BME280;17381;51.690;5.270;2022-08-14T18:21:03;100439.88;;;31.58;32.22
30614;BME280;17381;51.690;5.270;2022-08-14T18:23:53;100426.63;;;31.55;32.58
30614;BME280;17381;51.690;5.270;2022-08-14T18:26:56;100424.50;;;31.50;32.95
30614;BME280;17381;51.690;5.270;2022-08-14T18:30:08;100426.09;;;31.44;32.66
30614;BME280;17381;51.690;5.270;2022-08-14T18:33:26;100400.94;;;31.27;33.10
30614;BME280;17381;51.690;5.270;2022-08-14T18:36:49;100427.16;;;31.35;33.18
30614;BME280;17381;51.690;5.270;2022-08-14T18:39:54;100428.09;;;31.27;33.64
30614;BME280;17381;51.690;5.270;2022-08-14T18:43:46;100430.22;;;31.17;33.86
30614;BME280;17381;51.690;5.270;2022-08-14T18:50:36;100423.78;;;30.95;34.34
30614;BME280;17381;51.690;5.270;2022-08-14T18:53:55;100425.19;;;30.91;34.40
30614;BME280;17381;51.690;5.270;2022-08-14T18:57:10;100427.28;;;30.81;34.29
30614;BME280;17381;51.690;5.270;2022-08-14T19:03:58;100432.50;;;30.68;34.69
30614;BME280;17381;51.690;5.270;2022-08-14T19:07:09;100433.38;;;30.60;34.86
30614;BME280;17381;51.690;5.270;2022-08-14T19:10:15;100437.47;;;30.56;34.92
30614;BME280;17381;51.690;5.270;2022-08-14T19:14:00;100435.28;;;30.51;35.42
30614;BME280;17381;51.690;5.270;2022-08-14T19:17:07;100432.63;;;30.43;35.57
30614;BME280;17381;51.690;5.270;2022-08-14T19:20:25;100430.81;;;30.35;35.84
30614;BME280;17381;51.690;5.270;2022-08-14T19:23:39;100428.00;;;30.29;35.70
30614;BME280;17381;51.690;5.270;2022-08-14T19:26:39;100423.56;;;30.28;36.08
30614;BME280;17381;51.690;5.270;2022-08-14T19:29:43;100426.81;;;30.23;36.27
30614;BME280;17381;51.690;5.270;2022-08-14T19:32:59;100426.97;;;30.21;35.87
30614;BME280;17381;51.690;5.270;2022-08-14T19:35:57;100429.75;;;30.13;36.10
30614;BME280;17381;51.690;5.270;2022-08-14T19:39:11;100426.19;;;30.13;36.81
30614;BME280;17381;51.690;5.270;2022-08-14T19:42:06;100426.72;;;30.08;36.51
30614;BME280;17381;51.690;5.270;2022-08-14T19:44:44;100430.44;;;30.07;37.14
30614;BME280;17381;51.690;5.270;2022-08-14T19:47:40;100401.72;;;29.90;37.04
30614;BME280;17381;51.690;5.270;2022-08-14T19:50:36;100399.72;;;29.84;36.68
30614;BME280;17381;51.690;5.270;2022-08-14T19:53:52;100430.00;;;29.95;36.96
30614;BME280;17381;51.690;5.270;2022-08-14T19:56:51;100428.84;;;29.90;37.12
30614;BME280;17381;51.690;5.270;2022-08-14T19:59:44;100430.56;;;29.83;37.70
30614;BME280;17381;51.690;5.270;2022-08-14T20:09:22;100395.44;;;29.42;37.57
30614;BME280;17381;51.690;5.270;2022-08-14T20:12:24;100417.41;;;29.55;37.63
30614;BME280;17381;51.690;5.270;2022-08-14T20:15:23;100422.31;;;29.51;37.68
30614;BME280;17381;51.690;5.270;2022-08-14T20:18:36;100425.72;;;29.45;38.06
30614;BME280;17381;51.690;5.270;2022-08-14T20:21:25;100426.91;;;29.43;38.12
30614;BME280;17381;51.690;5.270;2022-08-14T21:31:31;100385.13;;;28.47;39.28
30614;BME280;17381;51.690;5.270;2022-08-14T21:38:52;100385.34;;;28.54;39.57
30614;BME280;17381;51.690;5.270;2022-08-14T21:42:26;100385.34;;;28.54;39.26
30614;BME280;17381;51.690;5.270;2022-08-14T23:19:21;100328.84;;;27.75;41.44
30614;BME280;17381;51.690;5.270;2022-08-14T23:29:12;100324.28;;;27.68;41.42
